createdAt,value
2019-02-28T00:00:40.795Z,25.32
2019-02-28T00:01:30.576Z,26.17
2019-02-28T00:02:15.016Z,22.37
2019-02-28T00:02:53.883Z,28.40
2019-02-28T00:03:32.297Z,36.73
2019-02-28T00:04:09.814Z,29.98
2019-02-28T00:04:47.512Z,29.25
2019-02-28T00:05:24.967Z,26.12
2019-02-28T00:06:02.553Z,25.27
2019-02-28T00:06:40.122Z,30.30
2019-02-28T00:07:18.684Z,27.93
2019-02-28T00:07:56.369Z,25.20
2019-02-28T00:08:34.199Z,24.98
2019-02-28T00:09:12.419Z,25.30
2019-02-28T00:09:50.393Z,23.67
2019-02-28T00:10:30.741Z,27.07
2019-02-28T00:11:07.975Z,26.02
2019-02-28T00:11:45.582Z,28.30
2019-02-28T00:12:23.582Z,27.42
2019-02-28T00:13:01.624Z,28.83
2019-02-28T00:13:39.286Z,28.50
2019-02-28T00:14:17.370Z,25.48
2019-02-28T00:14:58.615Z,27.25
2019-02-28T00:15:34.868Z,27.85
2019-02-28T00:16:12.640Z,24.67
2019-02-28T00:16:50.663Z,24.55
2019-02-28T00:17:28.651Z,25.62
2019-02-28T00:18:06.075Z,27.22
2019-02-28T00:18:49.332Z,23.12
2019-02-28T00:19:23.977Z,26.02
2019-02-28T00:20:02.362Z,27.42
2019-02-28T00:20:59.074Z,25.75
2019-02-28T00:21:37.361Z,26.15
2019-02-28T00:22:16.398Z,25.37
2019-02-28T00:22:54.521Z,28.20
2019-02-28T00:23:32.749Z,25.70
2019-02-28T00:24:10.479Z,24.47
2019-02-28T00:24:48.149Z,23.45
2019-02-28T00:25:26.281Z,25.85
2019-02-28T00:26:03.725Z,27.32
2019-02-28T00:26:46.222Z,27.17
2019-02-28T00:27:22.085Z,31.77
2019-02-28T00:28:00.258Z,25.52
2019-02-28T00:28:38.020Z,29.23
2019-02-28T00:29:15.738Z,27.67
2019-02-28T00:29:52.795Z,29.20
2019-02-28T00:30:30.989Z,25.92
2019-02-28T00:31:08.991Z,27.48
2019-02-28T00:31:49.290Z,28.25
2019-02-28T00:32:25.921Z,25.20
2019-02-28T00:33:03.640Z,31.35
2019-02-28T00:33:40.807Z,28.17
2019-02-28T00:34:18.882Z,26.30
2019-02-28T00:34:56.289Z,24.52
2019-02-28T00:35:34.135Z,26.90
2019-02-28T00:36:12.065Z,26.68
2019-02-28T00:36:50.351Z,26.50
2019-02-28T00:37:28.981Z,27.85
2019-02-28T00:38:06.809Z,28.02
2019-02-28T00:38:44.470Z,28.23
2019-02-28T00:39:22.210Z,29.20
2019-02-28T00:40:00.185Z,28.45
2019-02-28T00:40:38.689Z,24.27
2019-02-28T00:41:17.135Z,32.05
2019-02-28T00:41:55.159Z,30.17
2019-02-28T00:42:32.941Z,26.90
2019-02-28T00:43:10.781Z,29.27
2019-02-28T00:43:48.510Z,24.80
2019-02-28T00:44:30.462Z,26.70
2019-02-28T00:45:06.233Z,27.00
2019-02-28T00:45:43.401Z,31.50
2019-02-28T00:46:21.085Z,26.07
2019-02-28T00:47:01.125Z,29.35
2019-02-28T00:47:39.053Z,29.90
2019-02-28T00:48:18.265Z,27.77
2019-02-28T00:49:01.449Z,25.20
2019-02-28T00:49:39.201Z,27.75
2019-02-28T00:50:16.594Z,31.45
2019-02-28T00:50:54.578Z,26.30
2019-02-28T00:51:31.731Z,28.83
2019-02-28T00:52:09.299Z,28.45
2019-02-28T00:52:46.911Z,28.83
2019-02-28T00:53:24.273Z,26.52
2019-02-28T00:54:02.057Z,30.17
2019-02-28T00:54:42.982Z,31.17
2019-02-28T00:55:19.542Z,26.70
2019-02-28T00:55:57.805Z,26.75
2019-02-28T00:56:35.569Z,27.98
2019-02-28T00:57:13.039Z,31.57
2019-02-28T00:57:50.213Z,29.07
2019-02-28T00:58:28.956Z,27.32
2019-02-28T00:59:07.454Z,29.60
2019-02-28T00:59:45.223Z,30.00
2019-02-28T01:00:23.306Z,28.42
2019-02-28T01:01:01.432Z,30.57
2019-02-28T01:01:39.345Z,27.20
2019-02-28T01:02:18.495Z,29.77
2019-02-28T01:02:57.987Z,31.37
2019-02-28T01:03:35.837Z,25.60
2019-02-28T01:04:13.697Z,28.90
2019-02-28T01:04:51.174Z,33.28
2019-02-28T01:05:28.961Z,29.18
2019-02-28T01:06:09.703Z,29.63
2019-02-28T01:06:45.811Z,25.25
2019-02-28T01:07:23.353Z,27.25
2019-02-28T01:08:01.057Z,25.70
2019-02-28T01:08:38.723Z,25.40
2019-02-28T01:09:16.117Z,27.93
2019-02-28T01:09:53.873Z,31.87
2019-02-28T01:10:31.994Z,29.05
2019-02-28T01:11:10.449Z,33.20
2019-02-28T01:11:48.923Z,25.77
2019-02-28T01:12:26.913Z,27.87
2019-02-28T01:13:04.985Z,27.95
2019-02-28T01:13:42.429Z,30.55
2019-02-28T01:14:20.152Z,26.68
2019-02-28T01:14:57.957Z,30.35
2019-02-28T01:15:35.515Z,27.05
2019-02-28T01:16:16.107Z,27.98
2019-02-28T01:16:53.619Z,30.90
2019-02-28T01:17:31.204Z,37.40
2019-02-28T01:18:08.683Z,30.30
2019-02-28T01:18:48.019Z,30.72
2019-02-28T01:19:25.981Z,30.55
2019-02-28T01:20:03.837Z,31.48
2019-02-28T01:20:42.105Z,32.50
2019-02-28T01:21:23.672Z,28.15
2019-02-28T01:21:59.296Z,27.42
2019-02-28T01:22:37.063Z,34.83
2019-02-28T01:23:15.091Z,29.75
2019-02-28T01:23:53.159Z,29.65
2019-02-28T01:24:34.530Z,29.27
2019-02-28T01:25:10.495Z,30.12
2019-02-28T01:25:48.536Z,32.40
2019-02-28T01:26:26.341Z,33.33
2019-02-28T01:27:04.121Z,31.87
2019-02-28T01:27:42.044Z,38.20
2019-02-28T01:28:19.731Z,32.67
2019-02-28T01:29:01.471Z,37.88
2019-02-28T01:29:36.737Z,36.08
2019-02-28T01:30:14.627Z,32.23
2019-02-28T01:30:52.717Z,38.00
2019-02-28T01:31:30.467Z,29.85
2019-02-28T01:32:08.709Z,29.12
2019-02-28T01:32:49.769Z,31.68
2019-02-28T01:33:25.823Z,32.03
2019-02-28T01:34:03.204Z,35.10
2019-02-28T01:34:40.642Z,29.05
2019-02-28T01:35:18.213Z,34.73
2019-02-28T01:35:56.061Z,30.65
2019-02-28T01:36:33.465Z,32.13
2019-02-28T01:37:11.067Z,35.15
2019-02-28T01:37:48.893Z,33.67
2019-02-28T01:38:27.021Z,34.23
2019-02-28T01:39:05.865Z,35.85
2019-02-28T01:39:43.729Z,28.95
2019-02-28T01:40:21.206Z,34.70
2019-02-28T01:40:58.221Z,36.80
2019-02-28T01:41:36.307Z,32.42
2019-02-28T01:42:16.252Z,40.05
2019-02-28T01:42:54.843Z,38.20
2019-02-28T01:43:32.517Z,33.05
2019-02-28T01:44:10.521Z,31.60
2019-02-28T01:44:47.961Z,35.10
2019-02-28T01:45:25.083Z,30.40
2019-02-28T01:46:02.201Z,37.63
2019-02-28T01:46:39.633Z,38.55
2019-02-28T01:47:19.980Z,36.08
2019-02-28T01:47:56.732Z,36.70
2019-02-28T01:48:34.760Z,33.98
2019-02-28T01:49:12.807Z,34.00
2019-02-28T01:49:50.249Z,34.58
2019-02-28T01:50:29.610Z,37.85
2019-02-28T01:51:06.555Z,35.98
2019-02-28T01:51:44.393Z,38.53
2019-02-28T01:52:21.622Z,39.20
2019-02-28T01:52:59.402Z,36.90
2019-02-28T01:53:37.512Z,35.08
2019-02-28T01:54:15.461Z,38.75
2019-02-28T01:54:53.155Z,36.17
2019-02-28T01:55:30.955Z,33.05
2019-02-28T01:56:08.667Z,41.37
2019-02-28T01:56:45.691Z,37.60
2019-02-28T01:57:23.213Z,38.60
2019-02-28T01:58:00.253Z,43.15
2019-02-28T01:58:37.855Z,34.80
2019-02-28T01:59:15.644Z,41.13
2019-02-28T01:59:53.686Z,35.33
2019-02-28T02:00:31.531Z,36.95
2019-02-28T02:01:09.113Z,34.27
2019-02-28T02:01:46.483Z,36.33
2019-02-28T02:02:24.348Z,36.68
2019-02-28T02:03:01.863Z,38.85
2019-02-28T02:03:40.753Z,43.30
2019-02-28T02:04:19.266Z,35.17
2019-02-28T02:04:57.185Z,38.95
2019-02-28T02:05:35.325Z,34.73
2019-02-28T02:06:12.912Z,38.63
2019-02-28T02:06:51.065Z,41.85
2019-02-28T02:07:30.551Z,39.55
2019-02-28T02:08:08.003Z,34.75
2019-02-28T02:08:46.110Z,40.90
2019-02-28T02:09:23.601Z,38.30
2019-02-28T02:10:02.173Z,39.85
2019-02-28T02:10:40.209Z,34.73
2019-02-28T02:11:17.641Z,39.23
2019-02-28T02:11:57.976Z,40.60
2019-02-28T02:12:34.997Z,38.30
2019-02-28T02:13:12.691Z,41.08
2019-02-28T02:13:50.765Z,39.90
2019-02-28T02:14:28.702Z,34.63
2019-02-28T02:15:07.821Z,43.08
2019-02-28T02:15:45.371Z,41.10
2019-02-28T02:16:26.848Z,39.53
2019-02-28T02:17:02.467Z,42.25
2019-02-28T02:17:40.210Z,48.25
2019-02-28T02:18:18.007Z,43.45
2019-02-28T02:18:56.019Z,46.25
2019-02-28T02:19:33.931Z,39.63
2019-02-28T02:20:12.311Z,38.30
2019-02-28T02:20:49.981Z,46.60
2019-02-28T02:21:28.257Z,41.50
2019-02-28T02:22:09.149Z,42.27
2019-02-28T02:22:45.621Z,46.85
2019-02-28T02:23:23.640Z,62.45
2019-02-28T02:24:01.367Z,48.70
2019-02-28T02:24:39.159Z,43.73
2019-02-28T02:25:16.957Z,38.38
2019-02-28T02:25:54.716Z,43.78
2019-02-28T02:26:32.513Z,42.62
2019-02-28T02:27:10.503Z,46.30
2019-02-28T02:27:52.963Z,45.30
2019-02-28T02:28:27.927Z,43.05
2019-02-28T02:29:05.703Z,49.23
2019-02-28T02:30:02.628Z,48.23
2019-02-28T02:30:40.204Z,45.08
2019-02-28T02:31:17.934Z,44.27
2019-02-28T02:31:55.869Z,42.95
2019-02-28T02:32:37.459Z,45.73
2019-02-28T02:33:15.487Z,45.33
2019-02-28T02:33:53.236Z,46.83
2019-02-28T02:34:30.018Z,49.63
2019-02-28T02:35:08.441Z,50.00
2019-02-28T02:35:46.514Z,43.95
2019-02-28T02:36:24.192Z,46.58
2019-02-28T02:37:01.905Z,45.08
2019-02-28T02:37:39.505Z,43.65
2019-02-28T02:38:17.547Z,47.40
2019-02-28T02:38:55.485Z,45.70
2019-02-28T02:39:33.271Z,52.80
2019-02-28T02:40:11.525Z,49.67
2019-02-28T02:40:48.928Z,53.92
2019-02-28T02:41:26.734Z,47.40
2019-02-28T02:42:09.789Z,53.73
2019-02-28T02:42:47.268Z,46.40
2019-02-28T02:43:23.144Z,49.10
2019-02-28T02:44:00.265Z,50.85
2019-02-28T02:44:38.383Z,51.40
2019-02-28T02:45:16.103Z,50.25
2019-02-28T02:45:53.753Z,47.93
2019-02-28T02:46:31.205Z,55.45
2019-02-28T02:47:08.989Z,53.87
2019-02-28T02:47:46.574Z,54.45
2019-02-28T02:48:23.740Z,56.28
2019-02-28T02:49:01.476Z,47.73
2019-02-28T02:49:39.459Z,53.75
2019-02-28T02:50:17.022Z,56.80
2019-02-28T02:50:54.470Z,52.45
2019-02-28T02:51:31.852Z,54.40
2019-02-28T02:52:09.582Z,52.45
2019-02-28T02:52:47.587Z,53.90
2019-02-28T02:53:31.679Z,52.08
2019-02-28T02:54:09.232Z,53.95
2019-02-28T02:54:47.225Z,56.88
2019-02-28T02:55:28.941Z,55.20
2019-02-28T02:56:05.045Z,55.50
2019-02-28T02:56:42.840Z,51.02
2019-02-28T02:57:20.246Z,57.33
2019-02-28T02:57:57.968Z,47.03
2019-02-28T02:58:35.804Z,58.35
2019-02-28T02:59:13.196Z,53.63
2019-02-28T02:59:51.223Z,54.20
2019-02-28T03:00:29.216Z,54.65
2019-02-28T03:01:06.717Z,59.35
2019-02-28T03:01:44.496Z,60.20
2019-02-28T03:02:22.122Z,58.05
2019-02-28T03:02:59.892Z,59.20
2019-02-28T03:03:42.682Z,58.23
2019-02-28T03:04:23.136Z,57.15
2019-02-28T03:04:58.479Z,58.58
2019-02-28T03:05:36.682Z,59.95
2019-02-28T03:06:14.869Z,53.40
2019-02-28T03:06:52.600Z,61.90
2019-02-28T03:07:30.242Z,57.13
2019-02-28T03:08:07.947Z,65.32
2019-02-28T03:08:45.629Z,57.03
2019-02-28T03:09:23.654Z,55.55
2019-02-28T03:10:07.160Z,55.63
2019-02-28T03:10:44.499Z,60.65
2019-02-28T03:11:24.710Z,59.55
2019-02-28T03:12:01.869Z,58.60
2019-02-28T03:12:42.569Z,65.08
2019-02-28T03:13:20.427Z,60.30
2019-02-28T03:13:58.438Z,61.45
2019-02-28T03:14:36.525Z,60.48
2019-02-28T03:15:15.655Z,60.90
2019-02-28T03:15:53.671Z,63.40
2019-02-28T03:16:33.075Z,57.78
2019-02-28T03:17:12.083Z,59.83
2019-02-28T03:17:50.039Z,60.80
2019-02-28T03:18:27.538Z,63.48
2019-02-28T03:19:05.323Z,64.70
2019-02-28T03:19:43.310Z,69.17
2019-02-28T03:20:21.355Z,61.33
2019-02-28T03:20:59.000Z,61.28
2019-02-28T03:21:36.703Z,60.55
2019-02-28T03:22:14.797Z,59.67
2019-02-28T03:22:52.444Z,64.85
2019-02-28T03:23:38.159Z,56.80
2019-02-28T03:24:14.597Z,63.20
2019-02-28T03:24:51.082Z,62.53
2019-02-28T03:25:29.083Z,65.25
2019-02-28T03:26:07.249Z,57.15
2019-02-28T03:26:45.105Z,64.70
2019-02-28T03:27:22.663Z,68.60
2019-02-28T03:28:00.370Z,67.10
2019-02-28T03:28:37.781Z,60.98
2019-02-28T03:29:15.505Z,65.62
2019-02-28T03:29:52.787Z,68.87
2019-02-28T03:30:32.769Z,63.52
2019-02-28T03:31:14.458Z,66.67
2019-02-28T03:31:55.296Z,63.10
2019-02-28T03:32:39.354Z,69.65
2019-02-28T03:33:06.342Z,66.05
2019-02-28T03:33:44.343Z,67.42
2019-02-28T03:34:22.027Z,70.12
2019-02-28T03:34:59.827Z,70.47
2019-02-28T03:35:43.338Z,72.25
2019-02-28T03:36:17.229Z,67.55
2019-02-28T03:36:57.349Z,66.80
2019-02-28T03:37:34.605Z,69.32
2019-02-28T03:38:12.741Z,76.47
2019-02-28T03:38:50.508Z,73.05
2019-02-28T03:39:28.100Z,67.37
2019-02-28T03:40:06.669Z,76.33
2019-02-28T03:40:44.377Z,70.60
2019-02-28T03:41:22.142Z,73.15
2019-02-28T03:42:00.337Z,75.37
2019-02-28T03:42:37.846Z,71.12
2019-02-28T03:43:15.711Z,74.60
2019-02-28T03:43:53.596Z,66.22
2019-02-28T03:44:31.094Z,76.07
2019-02-28T03:45:09.085Z,72.80
2019-02-28T03:45:46.694Z,72.00
2019-02-28T03:46:24.684Z,78.12
2019-02-28T03:47:02.120Z,89.45
2019-02-28T03:47:40.033Z,78.45
2019-02-28T03:48:17.821Z,75.30
2019-02-28T03:48:55.901Z,80.47
2019-02-28T03:49:33.483Z,75.57
2019-02-28T03:50:11.573Z,80.15
2019-02-28T03:50:49.458Z,84.37
2019-02-28T03:51:28.336Z,79.80
2019-02-28T03:52:06.941Z,79.67
2019-02-28T03:52:44.862Z,81.55
2019-02-28T03:53:23.047Z,80.20
2019-02-28T03:54:00.776Z,78.05
2019-02-28T03:54:39.001Z,84.83
2019-02-28T03:55:16.733Z,79.40
2019-02-28T03:55:57.053Z,88.97
2019-02-28T03:56:34.558Z,80.95
2019-02-28T03:57:12.549Z,82.15
2019-02-28T03:57:50.399Z,79.03
2019-02-28T03:58:28.570Z,81.92
2019-02-28T03:59:06.089Z,82.35
2019-02-28T03:59:43.645Z,74.67
2019-02-28T04:00:21.402Z,81.35
2019-02-28T04:00:59.560Z,81.75
2019-02-28T04:01:44.827Z,85.87
2019-02-28T04:02:22.127Z,85.30
2019-02-28T04:02:59.010Z,87.40
2019-02-28T04:03:37.042Z,82.67
2019-02-28T04:04:15.182Z,84.07
2019-02-28T04:04:53.103Z,88.25
2019-02-28T04:05:31.378Z,84.67
2019-02-28T04:06:09.019Z,86.65
2019-02-28T04:06:47.112Z,84.58
2019-02-28T04:07:24.828Z,95.90
2019-02-28T04:08:02.528Z,86.08
2019-02-28T04:08:40.067Z,92.95
2019-02-28T04:09:18.129Z,92.88
2019-02-28T04:09:55.999Z,89.05
2019-02-28T04:10:34.080Z,89.85
2019-02-28T04:11:11.880Z,89.62
2019-02-28T04:11:49.396Z,83.10
2019-02-28T04:12:27.088Z,90.35
2019-02-28T04:13:04.704Z,93.62
2019-02-28T04:13:42.464Z,90.83
2019-02-28T04:14:22.149Z,86.85
2019-02-28T04:15:00.423Z,88.07
2019-02-28T04:15:38.263Z,93.62
2019-02-28T04:16:15.869Z,88.62
2019-02-28T04:16:54.511Z,86.75
2019-02-28T04:17:32.001Z,88.03
2019-02-28T04:18:09.838Z,83.37
2019-02-28T04:18:47.912Z,90.62
2019-02-28T04:19:25.903Z,87.80
2019-02-28T04:20:03.717Z,75.40
2019-02-28T04:20:41.418Z,93.05
2019-02-28T04:21:18.890Z,91.30
2019-02-28T04:21:56.259Z,94.32
2019-02-28T04:22:39.321Z,99.87
2019-02-28T04:23:16.809Z,100.78
2019-02-28T04:23:54.888Z,92.35
2019-02-28T04:24:32.399Z,92.90
2019-02-28T04:25:10.860Z,96.42
2019-02-28T04:25:48.879Z,94.13
2019-02-28T04:26:29.810Z,94.13
2019-02-28T04:27:06.829Z,97.40
2019-02-28T04:27:45.712Z,95.38
2019-02-28T04:28:23.432Z,94.62
2019-02-28T04:29:00.691Z,94.25
2019-02-28T04:29:38.492Z,98.40
2019-02-28T04:30:16.346Z,94.62
2019-02-28T04:30:54.187Z,107.47
2019-02-28T04:31:31.872Z,99.37
2019-02-28T04:32:09.663Z,110.48
2019-02-28T04:32:47.596Z,104.63
2019-02-28T04:33:25.840Z,93.67
2019-02-28T04:34:03.379Z,98.95
2019-02-28T04:34:40.852Z,105.43
2019-02-28T04:35:24.372Z,101.47
2019-02-28T04:36:00.610Z,98.58
2019-02-28T04:36:37.206Z,104.72
2019-02-28T04:37:14.660Z,99.20
2019-02-28T04:37:52.833Z,101.20
2019-02-28T04:38:30.670Z,103.20
2019-02-28T04:39:09.136Z,102.80
2019-02-28T04:39:47.098Z,104.97
2019-02-28T04:40:27.003Z,105.45
2019-02-28T04:41:04.071Z,108.57
2019-02-28T04:41:41.871Z,108.92
2019-02-28T04:42:19.634Z,117.33
2019-02-28T04:42:57.316Z,109.10
2019-02-28T04:43:35.328Z,101.58
2019-02-28T04:44:15.445Z,101.87
2019-02-28T04:44:52.962Z,103.72
2019-02-28T04:45:30.493Z,113.55
2019-02-28T04:46:08.264Z,109.60
2019-02-28T04:46:45.866Z,102.05
2019-02-28T04:47:23.558Z,108.78
2019-02-28T04:48:01.451Z,103.55
2019-02-28T04:48:39.062Z,107.97
2019-02-28T04:49:21.735Z,107.47
2019-02-28T04:49:59.900Z,106.70
2019-02-28T04:50:38.049Z,111.47
2019-02-28T04:51:15.824Z,105.30
2019-02-28T04:51:53.302Z,107.40
2019-02-28T04:52:30.746Z,113.88
2019-02-28T04:53:07.974Z,117.97
2019-02-28T04:53:46.100Z,102.47
2019-02-28T04:54:24.611Z,115.85
2019-02-28T04:55:03.934Z,107.80
2019-02-28T04:55:41.840Z,114.67
2019-02-28T04:56:19.552Z,108.00
2019-02-28T04:56:57.376Z,118.35
2019-02-28T04:57:34.980Z,116.70
2019-02-28T04:58:12.915Z,122.50
2019-02-28T04:58:50.742Z,117.25
2019-02-28T04:59:28.321Z,121.33
2019-02-28T05:00:07.266Z,114.17
2019-02-28T05:00:45.076Z,116.47
2019-02-28T05:01:28.860Z,114.35
2019-02-28T05:02:06.433Z,110.22
2019-02-28T05:03:03.032Z,120.45
2019-02-28T05:03:41.136Z,114.42
2019-02-28T05:04:18.676Z,126.10
2019-02-28T05:04:56.324Z,111.28
2019-02-28T05:05:34.032Z,133.72
2019-02-28T05:06:12.014Z,115.55
2019-02-28T05:06:49.102Z,118.30
2019-02-28T05:07:29.615Z,132.82
2019-02-28T05:08:06.524Z,119.62
2019-02-28T05:08:44.600Z,130.10
2019-02-28T05:09:22.648Z,120.53
2019-02-28T05:10:00.233Z,129.93
2019-02-28T05:10:37.818Z,113.65
2019-02-28T05:11:24.051Z,115.03
2019-02-28T05:12:02.441Z,123.97
2019-02-28T05:12:41.154Z,116.90
2019-02-28T05:13:18.726Z,119.93
2019-02-28T05:13:56.119Z,120.37
2019-02-28T05:14:34.087Z,123.58
2019-02-28T05:15:12.645Z,120.75
2019-02-28T05:15:50.253Z,128.30
2019-02-28T05:16:27.937Z,126.00
2019-02-28T05:17:05.093Z,119.70
2019-02-28T05:17:42.216Z,126.80
2019-02-28T05:18:19.336Z,129.70
2019-02-28T05:18:58.296Z,124.53
2019-02-28T05:19:39.803Z,124.05
2019-02-28T05:20:17.410Z,117.35
2019-02-28T05:20:55.300Z,125.92
2019-02-28T05:21:35.636Z,125.58
2019-02-28T05:22:13.224Z,129.15
2019-02-28T05:22:51.014Z,132.52
2019-02-28T05:23:29.080Z,124.15
2019-02-28T05:24:07.676Z,132.60
2019-02-28T05:24:46.286Z,135.22
2019-02-28T05:25:24.286Z,117.97
2019-02-28T05:26:10.900Z,126.33
2019-02-28T05:26:48.637Z,121.67
2019-02-28T05:27:27.321Z,134.27
2019-02-28T05:28:06.778Z,126.80
2019-02-28T05:28:44.018Z,121.80
2019-02-28T05:29:20.900Z,127.78
2019-02-28T05:30:10.058Z,128.20
2019-02-28T05:30:50.207Z,121.62
2019-02-28T05:31:29.980Z,125.33
2019-02-28T05:32:07.240Z,120.80
2019-02-28T05:32:45.008Z,127.78
2019-02-28T05:33:22.311Z,131.63
2019-02-28T05:34:00.275Z,137.62
2019-02-28T05:34:38.388Z,130.22
2019-02-28T05:35:15.977Z,127.55
2019-02-28T05:35:53.638Z,133.82
2019-02-28T05:36:34.631Z,129.60
2019-02-28T05:37:13.199Z,132.95
2019-02-28T05:37:51.724Z,129.60
2019-02-28T05:38:29.866Z,132.82
2019-02-28T05:39:09.239Z,128.02
2019-02-28T05:39:48.619Z,143.80
2019-02-28T05:40:31.188Z,136.88
2019-02-28T05:41:15.060Z,139.03
2019-02-28T05:41:55.518Z,127.20
2019-02-28T05:42:32.764Z,131.25
2019-02-28T05:43:11.568Z,139.00
2019-02-28T05:43:50.978Z,144.40
2019-02-28T05:44:29.661Z,134.30
2019-02-28T05:45:11.359Z,140.30
2019-02-28T05:45:51.682Z,142.10
2019-02-28T05:46:30.420Z,137.40
2019-02-28T05:47:11.347Z,134.47
2019-02-28T05:47:48.517Z,131.43
2019-02-28T05:48:26.668Z,133.82
2019-02-28T05:49:04.117Z,139.75
2019-02-28T05:49:42.015Z,132.47
2019-02-28T05:50:20.244Z,142.10
2019-02-28T05:50:57.436Z,139.75
2019-02-28T05:51:34.924Z,147.37
2019-02-28T05:52:12.858Z,137.40
2019-02-28T05:52:50.904Z,125.70
2019-02-28T05:53:28.244Z,139.00
2019-02-28T05:54:05.761Z,142.68
2019-02-28T05:54:43.869Z,141.43
2019-02-28T05:55:24.854Z,139.57
2019-02-28T05:56:01.372Z,147.00
2019-02-28T05:56:39.409Z,140.50
2019-02-28T05:57:17.463Z,136.97
2019-02-28T05:57:55.229Z,144.55
2019-02-28T05:58:34.386Z,153.82
2019-02-28T05:59:12.148Z,147.30
2019-02-28T05:59:49.832Z,149.18
2019-02-28T06:00:27.802Z,157.45
2019-02-28T06:01:08.662Z,148.28
2019-02-28T06:01:47.036Z,131.35
2019-02-28T06:02:25.670Z,136.70
2019-02-28T06:03:04.099Z,142.95
2019-02-28T06:03:41.562Z,145.45
2019-02-28T06:04:19.552Z,143.07
2019-02-28T06:04:57.467Z,141.95
2019-02-28T06:05:35.273Z,134.90
2019-02-28T06:06:12.817Z,149.53
2019-02-28T06:06:51.276Z,154.32
2019-02-28T06:07:29.908Z,136.65
2019-02-28T06:08:08.040Z,143.07
2019-02-28T06:08:45.920Z,144.82
2019-02-28T06:09:23.752Z,131.00
2019-02-28T06:10:01.549Z,139.62
2019-02-28T06:10:39.061Z,139.43
2019-02-28T06:11:17.170Z,132.75
2019-02-28T06:11:54.425Z,152.55
2019-02-28T06:12:32.410Z,140.00
2019-02-28T06:13:09.890Z,138.28
2019-02-28T06:13:49.689Z,143.32
2019-02-28T06:14:27.812Z,134.57
2019-02-28T06:15:07.078Z,135.65
2019-02-28T06:15:45.050Z,148.53
2019-02-28T06:16:23.020Z,141.80
2019-02-28T06:17:01.139Z,157.67
2019-02-28T06:17:38.937Z,133.97
2019-02-28T06:18:16.194Z,141.62
2019-02-28T06:18:53.697Z,142.68
2019-02-28T06:19:31.380Z,141.07
2019-02-28T06:20:09.832Z,137.65
2019-02-28T06:20:50.941Z,143.13
2019-02-28T06:21:26.832Z,136.95
2019-02-28T06:22:04.246Z,144.50
2019-02-28T06:22:42.143Z,139.70
2019-02-28T06:23:19.473Z,146.47
2019-02-28T06:23:57.356Z,140.75
2019-02-28T06:24:34.686Z,143.57
2019-02-28T06:25:12.017Z,143.30
2019-02-28T06:25:49.505Z,155.75
2019-02-28T06:26:27.211Z,127.87
2019-02-28T06:27:07.764Z,133.22
2019-02-28T06:28:04.357Z,144.02
2019-02-28T06:28:42.260Z,155.35
2019-02-28T06:29:20.029Z,143.62
2019-02-28T06:29:57.537Z,145.55
2019-02-28T06:30:35.321Z,148.65
2019-02-28T06:31:14.421Z,143.78
2019-02-28T06:31:52.633Z,145.82
2019-02-28T06:32:30.525Z,140.35
2019-02-28T06:33:08.272Z,140.03
2019-02-28T06:33:46.176Z,142.62
2019-02-28T06:34:23.983Z,144.77
2019-02-28T06:35:01.668Z,146.57
2019-02-28T06:35:39.140Z,141.15
2019-02-28T06:36:16.951Z,144.62
2019-02-28T06:36:54.589Z,139.20
2019-02-28T06:37:32.298Z,142.90
2019-02-28T06:38:10.291Z,139.40
2019-02-28T06:38:48.301Z,146.37
2019-02-28T06:39:26.890Z,147.02
2019-02-28T06:40:05.703Z,150.10
2019-02-28T06:40:49.073Z,137.77
2019-02-28T06:41:26.855Z,138.30
2019-02-28T06:42:04.348Z,145.20
2019-02-28T06:42:43.510Z,135.78
2019-02-28T06:43:21.968Z,142.72
2019-02-28T06:43:59.885Z,134.43
2019-02-28T06:44:37.291Z,131.75
2019-02-28T06:45:15.536Z,140.03
2019-02-28T06:45:53.229Z,139.92
2019-02-28T06:46:30.993Z,145.68
2019-02-28T06:47:11.300Z,139.72
2019-02-28T06:47:49.891Z,135.37
2019-02-28T06:48:27.990Z,138.77
2019-02-28T06:49:07.149Z,130.95
2019-02-28T06:49:44.259Z,149.45
2019-02-28T06:50:21.830Z,146.82
2019-02-28T06:51:00.023Z,145.72
2019-02-28T06:51:38.073Z,138.52
2019-02-28T06:52:15.833Z,145.30
2019-02-28T06:52:56.360Z,140.43
2019-02-28T06:53:36.307Z,144.53
2019-02-28T06:54:14.289Z,128.68
2019-02-28T06:54:54.298Z,136.32
2019-02-28T06:55:32.421Z,129.55
2019-02-28T06:56:10.181Z,135.12
2019-02-28T06:56:47.868Z,138.62
2019-02-28T06:57:26.741Z,133.87
2019-02-28T06:58:04.800Z,137.77
2019-02-28T06:58:42.260Z,134.95
2019-02-28T06:59:19.672Z,135.22
2019-02-28T06:59:57.471Z,140.43
2019-02-28T07:00:35.120Z,137.43
2019-02-28T07:01:12.793Z,135.97
2019-02-28T07:01:49.961Z,128.42
2019-02-28T07:02:28.511Z,130.85
2019-02-28T07:03:07.501Z,133.65
2019-02-28T07:03:53.314Z,127.82
2019-02-28T07:04:24.177Z,143.10
2019-02-28T07:05:01.964Z,140.45
2019-02-28T07:05:39.733Z,125.07
2019-02-28T07:06:17.143Z,133.70
2019-02-28T07:06:54.669Z,122.35
2019-02-28T07:07:32.714Z,130.70
2019-02-28T07:08:10.854Z,134.32
2019-02-28T07:08:48.677Z,122.17
2019-02-28T07:09:26.695Z,127.78
2019-02-28T07:10:06.189Z,137.80
2019-02-28T07:10:44.895Z,129.87
2019-02-28T07:11:22.317Z,134.93
2019-02-28T07:12:00.575Z,122.05
2019-02-28T07:12:38.465Z,120.20
2019-02-28T07:13:16.478Z,135.85
2019-02-28T07:13:54.144Z,126.67
2019-02-28T07:14:32.348Z,132.47
2019-02-28T07:15:10.416Z,142.45
2019-02-28T07:15:47.793Z,128.72
2019-02-28T07:16:25.715Z,130.50
2019-02-28T07:17:02.861Z,128.20
2019-02-28T07:17:42.608Z,125.60
2019-02-28T07:18:20.024Z,124.85
2019-02-28T07:18:57.652Z,132.35
2019-02-28T07:19:34.817Z,129.53
2019-02-28T07:20:14.149Z,132.95
2019-02-28T07:20:51.525Z,130.27
2019-02-28T07:21:29.311Z,129.23
2019-02-28T07:22:07.185Z,125.70
2019-02-28T07:22:44.897Z,131.37
2019-02-28T07:23:22.482Z,142.98
2019-02-28T07:24:02.433Z,129.57
2019-02-28T07:24:39.874Z,128.02
2019-02-28T07:25:17.364Z,126.97
2019-02-28T07:25:54.771Z,129.93
2019-02-28T07:26:32.339Z,129.63
2019-02-28T07:27:10.292Z,135.63
2019-02-28T07:27:48.577Z,133.52
2019-02-28T07:28:26.692Z,138.82
2019-02-28T07:29:04.734Z,117.57
2019-02-28T07:29:42.703Z,130.32
2019-02-28T07:30:21.083Z,138.28
2019-02-28T07:30:59.025Z,129.15
2019-02-28T07:31:36.945Z,121.30
2019-02-28T07:32:15.117Z,128.45
2019-02-28T07:32:52.629Z,122.10
2019-02-28T07:33:30.207Z,134.20
2019-02-28T07:34:08.011Z,120.77
2019-02-28T07:34:45.270Z,121.72
2019-02-28T07:35:23.051Z,127.05
2019-02-28T07:36:01.196Z,130.18
2019-02-28T07:36:41.497Z,114.85
2019-02-28T07:37:19.668Z,122.33
2019-02-28T07:37:57.543Z,131.55
2019-02-28T07:38:35.429Z,129.72
2019-02-28T07:39:13.228Z,126.22
2019-02-28T07:39:50.990Z,122.53
2019-02-28T07:40:29.083Z,126.22
2019-02-28T07:41:06.857Z,125.20
2019-02-28T07:41:44.243Z,132.63
2019-02-28T07:42:22.509Z,130.03
2019-02-28T07:43:00.071Z,131.95
2019-02-28T07:43:37.889Z,127.22
2019-02-28T07:44:21.057Z,134.93
2019-02-28T07:44:57.885Z,127.02
2019-02-28T07:45:34.537Z,127.35
2019-02-28T07:46:12.553Z,137.70
2019-02-28T07:46:49.959Z,132.25
2019-02-28T07:47:27.713Z,136.95
2019-02-28T07:48:06.043Z,132.40
2019-02-28T07:48:43.568Z,126.53
2019-02-28T07:49:21.553Z,125.58
2019-02-28T07:49:59.563Z,141.15
2019-02-28T07:50:38.551Z,136.60
2019-02-28T07:51:18.534Z,137.37
2019-02-28T07:51:56.943Z,139.30
2019-02-28T07:52:35.378Z,132.65
2019-02-28T07:53:12.882Z,126.92
2019-02-28T07:53:50.732Z,135.75
2019-02-28T07:54:28.865Z,128.80
2019-02-28T07:55:08.243Z,135.45
2019-02-28T07:55:45.816Z,130.70
2019-02-28T07:56:23.909Z,125.10
2019-02-28T07:57:01.727Z,125.75
2019-02-28T07:57:39.527Z,126.82
2019-02-28T07:58:16.609Z,123.67
2019-02-28T07:58:54.557Z,129.60
2019-02-28T07:59:32.029Z,122.72
2019-02-28T08:00:16.810Z,128.95
2019-02-28T08:01:10.743Z,124.92
2019-02-28T08:01:50.738Z,124.78
2019-02-28T08:02:27.337Z,127.95
2019-02-28T08:03:05.431Z,131.43
2019-02-28T08:03:43.322Z,116.08
2019-02-28T08:04:22.262Z,122.33
2019-02-28T08:04:59.628Z,129.00
2019-02-28T08:05:37.395Z,127.15
2019-02-28T08:06:14.661Z,132.80
2019-02-28T08:06:52.613Z,130.40